createdAt,value
2023-04-08T00:01:49.632Z,97875.34
2023-04-08T00:04:17.351Z,97889.00
2023-04-08T00:06:44.908Z,97885.66
2023-04-08T00:09:12.416Z,97885.19
2023-04-08T00:11:40.731Z,97889.50
2023-04-08T00:14:08.340Z,97878.53
2023-04-08T00:16:36.014Z,97887.50
2023-04-08T00:19:03.575Z,97892.34
2023-04-08T00:21:31.505Z,97891.84
2023-04-08T00:23:59.144Z,97884.31
2023-04-08T00:26:27.243Z,97888.47
2023-04-08T00:28:54.778Z,97884.16
2023-04-08T00:31:22.373Z,97892.16
2023-04-08T00:33:51.305Z,97890.00
2023-04-08T00:36:19.149Z,97882.44
2023-04-08T00:38:46.898Z,97888.03
2023-04-08T00:41:14.594Z,97889.25
2023-04-08T00:43:42.174Z,97891.09
2023-04-08T00:46:10.700Z,97895.47
2023-04-08T00:48:38.316Z,97896.97
2023-04-08T00:51:05.986Z,97892.31
2023-04-08T00:53:33.562Z,97898.16
2023-04-08T00:56:01.340Z,97896.47
2023-04-08T00:58:30.141Z,97901.16
2023-04-08T01:01:11.093Z,97897.66
2023-04-08T01:04:09.859Z,97901.31
2023-04-08T01:06:49.785Z,97897.34
2023-04-08T01:09:23.598Z,97895.59
2023-04-08T01:11:53.713Z,97893.06
2023-04-08T01:14:26.568Z,97896.06
2023-04-08T01:16:57.512Z,97898.94
2023-04-08T01:19:35.770Z,97891.63
2023-04-08T01:22:44.661Z,97896.41
2023-04-08T01:25:21.201Z,97896.44
2023-04-08T01:27:50.912Z,97896.75
2023-04-08T01:30:20.700Z,97890.94
2023-04-08T01:32:48.631Z,97891.09
2023-04-08T01:35:16.730Z,97887.41
2023-04-08T01:37:46.718Z,97894.41
2023-04-08T01:40:15.520Z,97895.25
2023-04-08T01:42:44.862Z,97893.06
2023-04-08T01:45:14.515Z,97887.06
2023-04-08T01:47:44.922Z,97893.06
2023-04-08T01:50:13.711Z,97884.41
2023-04-08T01:52:43.263Z,97891.53
2023-04-08T01:55:13.360Z,97884.22
2023-04-08T01:57:44.280Z,97883.88
2023-04-08T02:00:14.431Z,97885.72
2023-04-08T02:02:49.098Z,97887.69
2023-04-08T02:05:17.105Z,97888.69
2023-04-08T02:07:46.674Z,97887.34
2023-04-08T02:10:14.241Z,97887.50
2023-04-08T02:12:43.382Z,97882.97
2023-04-08T02:15:12.654Z,97885.44
2023-04-08T02:17:51.624Z,97884.69
2023-04-08T02:20:33.195Z,97875.88
2023-04-08T02:23:18.058Z,97879.56
2023-04-08T02:25:47.294Z,97885.84
2023-04-08T02:28:17.775Z,97885.34
2023-04-08T02:30:56.516Z,97882.63
2023-04-08T02:33:24.800Z,97885.38
2023-04-08T02:35:55.865Z,97888.34
2023-04-08T02:38:24.498Z,97886.03
2023-04-08T02:40:52.230Z,97893.16
2023-04-08T02:43:19.746Z,97890.97
2023-04-08T02:45:47.510Z,97893.34
2023-04-08T02:48:16.118Z,97893.00
2023-04-08T02:50:43.643Z,97888.06
2023-04-08T02:53:11.200Z,97889.56
2023-04-08T02:55:40.000Z,97888.44
2023-04-08T02:58:07.668Z,97892.59
2023-04-08T03:00:35.253Z,97887.81
2023-04-08T03:03:02.970Z,97887.47
2023-04-08T03:05:30.865Z,97887.31
2023-04-08T03:07:58.528Z,97891.47
2023-04-08T03:10:26.323Z,97882.50
2023-04-08T03:12:53.871Z,97887.53
2023-04-08T03:15:21.453Z,97888.38
2023-04-08T03:17:49.029Z,97879.69
2023-04-08T03:20:16.568Z,97889.84
2023-04-08T03:22:44.284Z,97885.47
2023-04-08T03:25:11.858Z,97890.81
2023-04-08T03:27:39.402Z,97889.31
2023-04-08T03:30:07.942Z,97894.25
2023-04-08T03:32:35.840Z,97888.59
2023-04-08T03:35:04.309Z,97904.03
2023-04-08T03:37:32.266Z,97900.22
2023-04-08T03:40:00.031Z,97903.50
2023-04-08T03:42:27.646Z,97892.56
2023-04-08T03:44:55.233Z,97910.03
2023-04-08T03:47:22.820Z,97901.53
2023-04-08T03:49:52.477Z,97895.50
2023-04-08T03:52:20.299Z,97907.13
2023-04-08T03:54:47.787Z,97901.56
2023-04-08T03:57:15.960Z,97895.41
2023-04-08T03:59:43.458Z,97903.09
2023-04-08T04:02:11.017Z,97896.91
2023-04-08T04:04:38.699Z,97901.28
2023-04-08T04:07:06.241Z,97894.59
2023-04-08T04:09:33.785Z,97894.94
2023-04-08T04:12:01.610Z,97897.09
2023-04-08T04:14:29.085Z,97897.28
2023-04-08T04:16:56.612Z,97891.66
2023-04-08T04:19:24.646Z,97904.97
2023-04-08T04:21:52.373Z,97897.59
2023-04-08T04:24:19.883Z,97898.75
2023-04-08T04:26:47.761Z,97906.44
2023-04-08T04:29:15.334Z,97902.88
2023-04-08T04:31:42.868Z,97903.50
2023-04-08T04:34:10.358Z,97904.97
2023-04-08T04:36:37.866Z,97903.06
2023-04-08T04:39:05.535Z,97907.50
2023-04-08T04:41:35.160Z,97902.88
2023-04-08T04:44:02.643Z,97907.66
2023-04-08T04:46:30.535Z,97911.53
2023-04-08T04:48:58.143Z,97907.84
2023-04-08T04:51:27.057Z,97909.53
2023-04-08T04:53:54.548Z,97907.72
2023-04-08T04:56:22.050Z,97915.41
2023-04-08T04:58:49.678Z,97923.47
2023-04-08T05:01:17.378Z,97927.66
2023-04-08T05:03:45.443Z,97928.94
2023-04-08T05:06:12.960Z,97929.25
2023-04-08T05:08:40.454Z,97927.78
2023-04-08T05:11:11.461Z,97929.78
2023-04-08T05:13:39.143Z,97934.56
2023-04-08T05:16:07.111Z,97931.91
2023-04-08T05:18:34.655Z,97935.91
2023-04-08T05:21:02.873Z,97933.66
2023-04-08T05:23:30.441Z,97938.00
2023-04-08T05:25:57.973Z,97944.91
2023-04-08T05:28:25.473Z,97942.91
2023-04-08T05:30:54.440Z,97942.06
2023-04-08T05:33:22.017Z,97943.03
2023-04-08T05:35:49.595Z,97951.00
2023-04-08T05:38:17.240Z,97946.91
2023-04-08T05:40:44.800Z,97950.31
2023-04-08T05:43:12.271Z,97955.41
2023-04-08T05:45:40.235Z,97954.28
2023-04-08T05:48:07.813Z,97957.53
2023-04-08T05:50:36.230Z,97964.63
2023-04-08T05:53:03.810Z,97964.34
2023-04-08T05:55:31.299Z,97963.38
2023-04-08T05:57:58.842Z,97963.00
2023-04-08T06:00:26.854Z,97969.88
2023-04-08T06:02:54.556Z,97964.06
2023-04-08T06:05:22.293Z,97971.03
2023-04-08T06:07:49.832Z,97969.94
2023-04-08T06:10:17.753Z,97965.38
2023-04-08T06:12:45.341Z,97972.97
2023-04-08T06:15:12.946Z,97978.63
2023-04-08T06:17:40.554Z,97983.47
2023-04-08T06:20:11.391Z,97987.81
2023-04-08T06:22:38.998Z,97988.31
2023-04-08T06:25:07.207Z,97991.66
2023-04-08T06:27:34.790Z,97988.25
2023-04-08T06:30:02.294Z,97991.13
2023-04-08T06:32:29.880Z,97994.47
2023-04-08T06:34:57.472Z,97993.31
2023-04-08T06:37:24.972Z,97995.56
2023-04-08T06:39:52.445Z,97997.16
2023-04-08T06:42:20.476Z,97995.94
2023-04-08T06:45:07.735Z,98000.44
2023-04-08T06:47:35.264Z,98000.56
2023-04-08T06:50:03.009Z,98000.44
2023-04-08T06:52:30.598Z,98001.91
2023-04-08T06:54:58.078Z,97997.66
2023-04-08T06:57:25.722Z,98009.25
2023-04-08T06:59:53.526Z,98010.00
2023-04-08T07:02:22.124Z,98008.28
2023-04-08T07:04:49.951Z,98009.31
2023-04-08T07:07:17.510Z,98016.09
2023-04-08T07:09:46.440Z,98017.88
2023-04-08T07:12:14.022Z,98023.91
2023-04-08T07:14:41.529Z,98025.25
2023-04-08T07:17:09.284Z,98021.38
2023-04-08T07:19:37.451Z,98019.38
2023-04-08T07:22:04.956Z,98024.91
2023-04-08T07:24:32.734Z,98024.78
2023-04-08T07:27:00.208Z,98023.69
2023-04-08T07:29:27.993Z,98027.91
2023-04-08T07:31:55.511Z,98029.63
2023-04-08T07:34:23.052Z,98031.09
2023-04-08T07:36:50.615Z,98028.66
2023-04-08T07:39:18.169Z,98021.75
2023-04-08T07:41:45.653Z,98018.91
2023-04-08T07:44:17.032Z,98026.31
2023-04-08T07:46:46.307Z,98036.09
2023-04-08T07:49:13.908Z,98035.19
2023-04-08T07:51:41.404Z,98036.00
2023-04-08T07:54:11.933Z,98035.41
2023-04-08T07:56:43.166Z,98040.34
2023-04-08T07:59:14.056Z,98036.81
2023-04-08T08:01:41.625Z,98043.19
2023-04-08T08:04:09.248Z,98047.41
2023-04-08T08:06:36.973Z,98055.94
2023-04-08T08:09:05.044Z,98047.97
2023-04-08T08:11:33.003Z,98050.13
2023-04-08T08:14:00.498Z,98045.44
2023-04-08T08:16:32.349Z,98051.97
2023-04-08T08:19:00.382Z,98046.66
2023-04-08T08:21:27.901Z,98055.34
2023-04-08T08:23:56.757Z,98064.91
2023-04-08T08:26:24.828Z,98061.91
2023-04-08T08:28:52.451Z,98060.06
2023-04-08T08:31:20.095Z,98062.75
2023-04-08T08:33:47.585Z,98068.09
2023-04-08T08:36:15.347Z,98057.06
2023-04-08T08:38:42.855Z,98066.22
2023-04-08T08:41:10.342Z,98066.00
2023-04-08T08:43:38.618Z,98072.16
2023-04-08T08:46:11.605Z,98066.66
2023-04-08T08:48:40.627Z,98066.88
2023-04-08T08:51:12.556Z,98071.72
2023-04-08T08:53:45.054Z,98073.88
2023-04-08T08:56:18.503Z,98067.06
2023-04-08T08:58:47.543Z,98076.09
2023-04-08T09:01:40.290Z,98080.78
2023-04-08T09:04:15.809Z,98077.81
2023-04-08T09:06:45.216Z,98079.28
2023-04-08T09:09:13.163Z,98081.63
2023-04-08T09:11:47.152Z,98086.00
2023-04-08T09:14:22.630Z,98085.84
2023-04-08T09:16:51.729Z,98082.38
2023-04-08T09:19:20.235Z,98081.03
2023-04-08T09:22:07.388Z,98081.69
2023-04-08T09:24:36.893Z,98080.72
2023-04-08T09:27:05.754Z,98085.06
2023-04-08T09:29:36.412Z,98083.91
2023-04-08T09:32:06.224Z,98082.06
2023-04-08T09:34:34.368Z,98082.53
2023-04-08T09:37:02.256Z,98085.69
2023-04-08T09:39:30.745Z,98076.13
2023-04-08T09:42:01.263Z,98086.81
2023-04-08T09:44:31.415Z,98090.63
2023-04-08T09:47:12.828Z,98080.88
2023-04-08T09:50:05.432Z,98080.38
2023-04-08T09:52:40.111Z,98079.22
2023-04-08T09:55:12.391Z,98082.88
2023-04-08T09:58:23.463Z,98078.19
2023-04-08T10:00:53.965Z,98082.88
2023-04-08T10:03:40.385Z,98083.38
2023-04-08T10:06:10.284Z,98083.41
2023-04-08T10:08:38.419Z,98076.25
2023-04-08T10:11:06.326Z,98081.59
2023-04-08T10:13:34.459Z,98083.09
2023-04-08T10:16:22.044Z,98080.25
2023-04-08T10:18:52.817Z,98083.75
2023-04-08T10:21:37.043Z,98087.88
2023-04-08T10:24:11.800Z,98081.66
2023-04-08T10:26:45.196Z,98080.94
2023-04-08T10:29:18.620Z,98081.28
2023-04-08T10:31:52.653Z,98075.13
2023-04-08T10:34:26.792Z,98081.16
2023-04-08T10:36:58.812Z,98078.97
2023-04-08T10:39:27.167Z,98082.69
2023-04-08T10:41:54.858Z,98078.81
2023-04-08T10:44:26.605Z,98075.31
2023-04-08T10:46:55.642Z,98081.66
2023-04-08T10:49:31.939Z,98076.28
2023-04-08T10:51:59.455Z,98075.78
2023-04-08T10:54:27.211Z,98077.28
2023-04-08T10:56:54.832Z,98079.13
2023-04-08T10:59:32.838Z,98076.09
2023-04-08T11:02:01.435Z,98080.28
2023-04-08T11:04:29.377Z,98068.25
2023-04-08T11:06:58.165Z,98074.59
2023-04-08T11:09:25.638Z,98073.91
2023-04-08T11:11:53.816Z,98076.53
2023-04-08T11:14:22.424Z,98077.00
2023-04-08T11:16:50.212Z,98080.34
2023-04-08T11:19:18.583Z,98073.84
2023-04-08T11:21:46.689Z,98074.34
2023-04-08T11:24:16.300Z,98071.16
2023-04-08T11:26:43.928Z,98078.69
2023-04-08T11:29:14.129Z,98070.28
2023-04-08T11:31:43.871Z,98073.44
2023-04-08T11:34:12.056Z,98076.97
2023-04-08T11:36:41.501Z,98071.28
2023-04-08T11:39:12.485Z,98064.63
2023-04-08T11:41:40.500Z,98066.13
2023-04-08T11:44:08.788Z,98071.16
2023-04-08T11:46:36.903Z,98061.81
2023-04-08T11:49:06.853Z,98063.34
2023-04-08T11:51:53.444Z,98058.47
2023-04-08T11:54:29.023Z,98064.81
2023-04-08T11:56:58.252Z,98062.63
2023-04-08T11:59:28.387Z,98062.94
2023-04-08T12:01:57.208Z,98068.28
2023-04-08T12:04:24.934Z,98070.28
2023-04-08T12:06:53.318Z,98068.16
2023-04-08T12:09:20.826Z,98064.97
2023-04-08T12:11:48.566Z,98077.56
2023-04-08T12:14:16.312Z,98067.84
2023-04-08T12:16:43.798Z,98068.84
2023-04-08T12:19:11.379Z,98071.88
2023-04-08T12:21:39.322Z,98066.88
2023-04-08T12:24:07.147Z,98068.53
2023-04-08T12:26:35.706Z,98071.38
2023-04-08T12:29:03.312Z,98076.44
2023-04-08T12:31:30.921Z,98079.28
2023-04-08T12:33:58.435Z,98076.78
2023-04-08T12:36:27.240Z,98079.50
2023-04-08T12:38:54.828Z,98079.84
2023-04-08T12:41:22.337Z,98082.84
2023-04-08T12:43:49.829Z,98083.34
2023-04-08T12:46:17.610Z,98083.63
2023-04-08T12:48:47.476Z,98083.28
2023-04-08T12:51:15.213Z,98083.63
2023-04-08T12:53:42.930Z,98078.44
2023-04-08T12:56:10.602Z,98081.09
2023-04-08T12:58:38.071Z,98077.94
2023-04-08T13:01:06.172Z,98075.59
2023-04-08T13:03:35.004Z,98081.16
2023-04-08T13:06:02.703Z,98069.78
2023-04-08T13:08:30.236Z,98073.28
2023-04-08T13:10:57.721Z,98063.88
2023-04-08T13:13:25.220Z,98064.66
2023-04-08T13:15:52.862Z,98066.19
2023-04-08T13:18:20.631Z,98070.66
2023-04-08T13:20:48.152Z,98065.13
2023-04-08T13:23:17.831Z,98069.16
2023-04-08T13:25:48.297Z,98075.66
2023-04-08T13:28:15.842Z,98074.09
2023-04-08T13:30:43.325Z,98074.78
2023-04-08T13:33:11.097Z,98069.41
2023-04-08T13:35:38.610Z,98067.19
2023-04-08T13:38:06.105Z,98069.19
2023-04-08T13:40:33.595Z,98067.59
2023-04-08T13:43:01.611Z,98069.59
2023-04-08T13:45:29.228Z,98075.78
2023-04-08T13:47:56.900Z,98066.97
2023-04-08T13:50:24.595Z,98068.28
2023-04-08T13:52:52.100Z,98076.78
2023-04-08T13:55:19.590Z,98075.66
2023-04-08T13:57:47.128Z,98077.88
2023-04-08T14:00:15.259Z,98075.06
2023-04-08T14:02:42.973Z,98068.38
2023-04-08T14:05:10.695Z,98065.53
2023-04-08T14:07:38.213Z,98068.56
2023-04-08T14:10:06.600Z,98060.00
2023-04-08T14:12:34.120Z,98059.47
2023-04-08T14:15:02.782Z,98058.88
2023-04-08T14:17:30.366Z,98066.97
2023-04-08T14:19:59.439Z,98063.59
2023-04-08T14:22:26.972Z,98071.56
2023-04-08T14:24:54.473Z,98070.31
2023-04-08T14:27:21.982Z,98071.06
2023-04-08T14:29:49.466Z,98063.09
2023-04-08T14:32:16.982Z,98066.84
2023-04-08T14:34:44.714Z,98066.22
2023-04-08T14:37:12.722Z,98063.09
2023-04-08T14:39:40.317Z,98070.53
2023-04-08T14:42:07.864Z,98063.31
2023-04-08T14:45:13.118Z,98070.22
2023-04-08T14:47:40.752Z,98076.06
2023-04-08T14:50:08.860Z,98075.41
2023-04-08T14:52:36.335Z,98081.06
2023-04-08T14:55:04.395Z,98074.66
2023-04-08T14:57:31.956Z,98073.19
2023-04-08T14:59:59.492Z,98076.13
2023-04-08T15:02:27.808Z,98082.84
2023-04-08T15:04:55.327Z,98082.81
2023-04-08T15:07:23.619Z,98082.69
2023-04-08T15:09:51.122Z,98081.22
2023-04-08T15:12:18.648Z,98088.63
2023-04-08T15:14:46.115Z,98088.66
2023-04-08T15:17:13.597Z,98084.66
2023-04-08T15:19:41.106Z,98086.50
2023-04-08T15:22:08.658Z,98082.47
2023-04-08T15:24:36.240Z,98084.78
2023-04-08T15:27:03.808Z,98093.50
2023-04-08T15:29:31.303Z,98089.31
2023-04-08T15:31:58.868Z,98091.31
2023-04-08T15:34:27.043Z,98096.69
2023-04-08T15:36:57.092Z,98099.69
2023-04-08T15:39:25.299Z,98096.44
2023-04-08T15:41:53.105Z,98098.31
2023-04-08T15:44:20.584Z,98096.19
2023-04-08T15:46:48.135Z,98089.31
2023-04-08T15:49:15.619Z,98093.97
2023-04-08T15:51:44.506Z,98097.66
2023-04-08T15:54:12.242Z,98098.19
2023-04-08T15:56:39.801Z,98104.22
2023-04-08T15:59:07.294Z,98103.19
2023-04-08T16:01:34.863Z,98105.03
2023-04-08T16:04:02.497Z,98107.78
2023-04-08T16:06:30.229Z,98110.97
2023-04-08T16:08:57.751Z,98108.50
2023-04-08T16:11:26.035Z,98112.00
2023-04-08T16:13:53.687Z,98110.31
2023-04-08T16:16:21.285Z,98115.19
2023-04-08T16:18:48.850Z,98114.69
2023-04-08T16:21:17.197Z,98116.16
2023-04-08T16:23:44.752Z,98118.91
2023-04-08T16:26:12.744Z,98123.94
2023-04-08T16:28:40.278Z,98124.31
2023-04-08T16:31:07.858Z,98123.34
2023-04-08T16:33:35.460Z,98122.31
2023-04-08T16:36:04.272Z,98130.19
2023-04-08T16:38:32.972Z,98130.72
2023-04-08T16:41:00.993Z,98140.97
2023-04-08T16:43:28.477Z,98126.91
2023-04-08T16:45:55.994Z,98138.97
2023-04-08T16:48:23.513Z,98141.50
2023-04-08T16:50:51.022Z,98144.19
2023-04-08T16:53:18.629Z,98152.38
2023-04-08T16:55:46.144Z,98151.03
2023-04-08T16:58:13.671Z,98150.88
2023-04-08T17:00:41.176Z,98155.06
2023-04-08T17:03:09.065Z,98155.78
2023-04-08T17:05:37.064Z,98153.63
2023-04-08T17:08:04.999Z,98155.28
2023-04-08T17:10:32.530Z,98164.50
2023-04-08T17:13:00.047Z,98165.19
2023-04-08T17:15:27.582Z,98160.50
2023-04-08T17:17:55.137Z,98163.84
2023-04-08T17:20:23.089Z,98165.50
2023-04-08T17:22:50.991Z,98161.00
2023-04-08T17:25:18.545Z,98166.34
2023-04-08T17:27:46.110Z,98166.69
2023-04-08T17:30:13.812Z,98161.34
2023-04-08T17:32:41.330Z,98167.88
2023-04-08T17:35:09.085Z,98172.41
2023-04-08T17:37:36.697Z,98170.88
2023-04-08T17:40:04.631Z,98180.94
2023-04-08T17:42:32.160Z,98184.13
2023-04-08T17:45:01.566Z,98184.47
2023-04-08T17:47:29.210Z,98187.50
2023-04-08T17:49:56.760Z,98184.47
2023-04-08T17:52:24.256Z,98187.00
2023-04-08T17:54:51.742Z,98186.34
2023-04-08T17:57:19.260Z,98194.53
2023-04-08T17:59:47.154Z,98187.31
2023-04-08T18:02:14.703Z,98188.50
2023-04-08T18:04:42.802Z,98193.19
2023-04-08T18:07:10.634Z,98192.19
2023-04-08T18:09:38.150Z,98192.72
2023-04-08T18:12:06.275Z,98199.41
2023-04-08T18:14:33.758Z,98199.88
2023-04-08T18:17:02.222Z,98203.59
2023-04-08T18:19:29.925Z,98204.25
2023-04-08T18:21:57.407Z,98212.44
2023-04-08T18:24:24.892Z,98220.63
2023-04-08T18:27:01.371Z,98225.47
2023-04-08T18:29:31.725Z,98228.34
2023-04-08T18:31:59.208Z,98232.31
2023-04-08T18:34:26.951Z,98234.16
2023-04-08T18:36:54.504Z,98241.22
2023-04-08T18:39:22.539Z,98240.53
2023-04-08T18:41:50.197Z,98239.69
2023-04-08T18:44:17.668Z,98240.69
2023-04-08T18:46:45.790Z,98240.19
2023-04-08T18:49:13.258Z,98241.53
2023-04-08T18:51:44.001Z,98244.69
2023-04-08T18:54:17.841Z,98246.53
2023-04-08T18:56:45.458Z,98247.34
2023-04-08T18:59:13.936Z,98248.38
2023-04-08T19:01:42.110Z,98253.88
2023-04-08T19:04:13.125Z,98259.22
2023-04-08T19:06:41.885Z,98258.72
2023-04-08T19:09:09.397Z,98260.56
2023-04-08T19:11:36.889Z,98265.22
2023-04-08T19:14:04.385Z,98265.22
2023-04-08T19:16:31.948Z,98267.25
2023-04-08T19:18:59.568Z,98273.25
2023-04-08T19:21:31.646Z,98270.59
2023-04-08T19:23:59.102Z,98266.72
2023-04-08T19:26:26.599Z,98273.91
2023-04-08T19:28:54.070Z,98272.22
2023-04-08T19:31:21.916Z,98271.41
2023-04-08T19:33:49.693Z,98277.38
2023-04-08T19:36:17.341Z,98280.34
2023-04-08T19:38:44.864Z,98274.19
2023-04-08T19:41:12.385Z,98274.19
2023-04-08T19:43:39.852Z,98285.88
2023-04-08T19:46:07.627Z,98293.06
2023-04-08T19:48:35.201Z,98295.72
2023-04-08T19:51:03.455Z,98290.38
2023-04-08T19:53:30.953Z,98280.84
2023-04-08T19:56:01.255Z,98294.38
2023-04-08T19:58:29.080Z,98290.88
2023-04-08T20:00:56.650Z,98287.53
2023-04-08T20:03:24.308Z,98290.22
2023-04-08T20:05:52.388Z,98293.72
2023-04-08T20:08:20.007Z,98297.38
2023-04-08T20:10:49.385Z,98291.03
2023-04-08T20:13:17.422Z,98297.38
2023-04-08T20:15:45.338Z,98299.22
2023-04-08T20:18:14.512Z,98297.69
2023-04-08T20:20:42.858Z,98292.66
2023-04-08T20:23:10.570Z,98292.66
2023-04-08T20:25:38.508Z,98290.19
2023-04-08T20:28:06.128Z,98294.81
2023-04-08T20:30:33.652Z,98292.16
2023-04-08T20:33:01.286Z,98295.84
2023-04-08T20:35:28.783Z,98296.66
2023-04-08T20:37:56.718Z,98296.81
2023-04-08T20:40:24.362Z,98296.81
2023-04-08T20:42:51.975Z,98301.03
2023-04-08T20:45:19.509Z,98300.88
2023-04-08T20:47:47.009Z,98294.66
2023-04-08T20:50:15.049Z,98299.84
2023-04-08T20:52:42.672Z,98292.84
2023-04-08T20:55:10.308Z,98288.34
2023-04-08T20:57:37.888Z,98290.34
2023-04-08T21:00:06.310Z,98283.81
2023-04-08T21:02:34.513Z,98287.66
2023-04-08T21:05:02.185Z,98283.31
2023-04-08T21:07:30.294Z,98282.31
2023-04-08T21:09:57.946Z,98286.81
2023-04-08T21:12:25.487Z,98287.66
2023-04-08T21:14:52.989Z,98279.94
2023-04-08T21:17:20.494Z,98291.31
2023-04-08T21:19:48.039Z,98283.44
2023-04-08T21:22:16.405Z,98282.97
2023-04-08T21:24:43.890Z,98277.78
2023-04-08T21:27:11.841Z,98281.44
2023-04-08T21:29:39.338Z,98283.44
2023-04-08T21:32:07.292Z,98283.59
2023-04-08T21:34:34.817Z,98279.25
2023-04-08T21:37:02.284Z,98286.75
2023-04-08T21:39:29.738Z,98286.06
2023-04-08T21:41:57.387Z,98292.25
2023-04-08T21:44:24.871Z,98280.88
2023-04-08T21:46:52.633Z,98278.53
2023-04-08T21:49:20.634Z,98285.69
2023-04-08T21:51:48.116Z,98282.50
2023-04-08T21:54:15.744Z,98293.53
2023-04-08T21:56:43.618Z,98284.47
2023-04-08T21:59:11.141Z,98287.78
2023-04-08T22:01:38.821Z,98296.97
2023-04-08T22:04:06.476Z,98292.22
2023-04-08T22:06:34.054Z,98292.03
2023-04-08T22:09:01.664Z,98290.81
2023-04-08T22:11:29.165Z,98286.09
2023-04-08T22:13:56.654Z,98289.06
2023-04-08T22:16:24.389Z,98286.22
2023-04-08T22:18:52.126Z,98283.31
2023-04-08T22:21:19.721Z,98282.13
2023-04-08T22:23:47.195Z,98289.91
2023-04-08T22:26:15.844Z,98285.31
2023-04-08T22:28:43.706Z,98283.41
2023-04-08T22:31:12.491Z,98283.34
2023-04-08T22:33:40.352Z,98283.09
2023-04-08T22:36:07.969Z,98283.72
2023-04-08T22:38:36.136Z,98280.97
2023-04-08T22:41:03.804Z,98282.41
2023-04-08T22:43:31.307Z,98275.72
2023-04-08T22:45:58.832Z,98279.66
2023-04-08T22:48:26.353Z,98277.63
2023-04-08T22:50:53.889Z,98279.88
2023-04-08T22:53:21.758Z,98278.66
2023-04-08T22:55:49.269Z,98279.94
2023-04-08T22:58:16.760Z,98276.75
2023-04-08T23:00:44.312Z,98278.84
2023-04-08T23:03:11.864Z,98274.81
2023-04-08T23:05:39.492Z,98276.94
2023-04-08T23:08:07.053Z,98272.91
2023-04-08T23:10:34.592Z,98276.03
2023-04-08T23:13:02.082Z,98275.06
2023-04-08T23:15:29.670Z,98279.34
2023-04-08T23:17:57.314Z,98280.44
2023-04-08T23:20:25.033Z,98275.72
2023-04-08T23:22:52.547Z,98279.66
2023-04-08T23:25:20.294Z,98271.25
2023-04-08T23:27:47.775Z,98280.16
2023-04-08T23:30:15.479Z,98273.03
2023-04-08T23:32:42.988Z,98280.44
2023-04-08T23:35:10.618Z,98276.00
2023-04-08T23:37:38.141Z,98282.59
2023-04-08T23:40:06.886Z,98281.03
2023-04-08T23:42:34.358Z,98290.69
2023-04-08T23:45:01.845Z,98278.50
2023-04-08T23:47:31.126Z,98282.88
2023-04-08T23:49:58.785Z,98285.94
2023-04-08T23:52:26.282Z,98279.25
2023-04-08T23:54:53.747Z,98281.34
2023-04-08T23:57:21.845Z,98280.66
2023-04-08T23:59:49.382Z,98280.94
